Terminal Aerodrome Forecast
Issued by NWS

Home | Current Version | Previous Version | Text Only | Print | Product List | Glossary On
Versions: 1 2 3 4 5 6 7 8 9 10 11 12 13 14 15 16 17
000
FTUS45 KRIW 261100
TAFBPI
TAF
KBPI 261136Z 2612/2712 14011KT P6SM -RA SCT008 OVC017
      TEMPO 2612/2615 5SM -RASN BR BKN008
     FM262000 31014KT P6SM VCSH SCT025 BKN050
     FM270400 35007KT P6SM SCT025 BKN040=

USA.gov is the U.S. government's official web portal to all federal, state and local government web resources and services.